createdAt,value
2023-03-05T00:00:27.638Z,80.50
2023-03-05T00:02:55.417Z,80.71
2023-03-05T00:05:23.245Z,80.40
2023-03-05T00:07:51.153Z,80.03
2023-03-05T00:10:19.053Z,80.27
2023-03-05T00:12:46.808Z,80.35
2023-03-05T00:15:16.196Z,80.46
2023-03-05T00:17:43.940Z,80.35
2023-03-05T00:20:12.592Z,80.41
2023-03-05T00:22:40.389Z,80.57
2023-03-05T00:25:09.046Z,80.90
2023-03-05T00:27:36.790Z,80.90
2023-03-05T00:30:04.997Z,79.79
2023-03-05T00:32:34.171Z,80.07
2023-03-05T00:35:01.937Z,80.37
2023-03-05T00:37:29.725Z,81.00
2023-03-05T00:39:58.367Z,80.45
2023-03-05T00:42:26.192Z,80.02
2023-03-05T00:44:53.982Z,79.58
2023-03-05T00:47:21.753Z,79.25
2023-03-05T00:49:50.843Z,79.46
2023-03-05T00:52:18.629Z,79.84
2023-03-05T00:54:46.411Z,79.79
2023-03-05T00:57:14.149Z,79.91
2023-03-05T00:59:41.938Z,79.58
2023-03-05T01:02:09.802Z,79.55
2023-03-05T01:04:38.139Z,79.40
2023-03-05T01:07:07.376Z,79.10
2023-03-05T01:09:35.130Z,79.05
2023-03-05T01:12:02.867Z,79.25
2023-03-05T01:14:30.646Z,79.78
2023-03-05T01:16:58.388Z,80.11
2023-03-05T01:19:26.130Z,80.17
2023-03-05T01:21:55.002Z,80.30
2023-03-05T01:24:24.139Z,79.68
2023-03-05T01:26:52.004Z,79.96
2023-03-05T01:29:19.879Z,79.43
2023-03-05T01:31:47.651Z,79.67
2023-03-05T01:34:15.957Z,80.10
2023-03-05T01:36:43.771Z,79.88
2023-03-05T01:39:11.544Z,79.75
2023-03-05T01:41:40.666Z,80.23
2023-03-05T01:44:08.551Z,80.48
2023-03-05T01:46:38.045Z,80.40
2023-03-05T01:49:21.779Z,80.28
2023-03-05T01:51:56.489Z,80.42
2023-03-05T01:54:27.992Z,81.05
2023-03-05T01:56:59.829Z,81.60
2023-03-05T01:59:28.662Z,81.60
2023-03-05T02:01:58.883Z,81.55
2023-03-05T02:04:33.512Z,81.88
2023-03-05T02:07:03.446Z,82.09
2023-03-05T02:09:31.249Z,82.74
2023-03-05T02:12:00.709Z,83.02
2023-03-05T02:14:29.055Z,82.92
2023-03-05T02:16:56.888Z,83.63
2023-03-05T02:19:24.698Z,83.79
2023-03-05T02:21:54.011Z,84.12
2023-03-05T02:24:35.855Z,84.40
2023-03-05T02:27:04.430Z,85.12
2023-03-05T02:29:33.805Z,85.69
2023-03-05T02:32:02.631Z,85.95
2023-03-05T02:34:31.022Z,85.84
2023-03-05T02:37:00.113Z,86.22
2023-03-05T02:39:27.962Z,86.50
2023-03-05T02:41:55.722Z,86.72
2023-03-05T02:44:23.977Z,86.67
2023-03-05T02:46:51.734Z,86.88
2023-03-05T02:49:19.531Z,86.61
2023-03-05T02:51:47.279Z,86.68
2023-03-05T02:54:16.382Z,86.74
2023-03-05T02:56:44.455Z,87.01
2023-03-05T02:59:12.236Z,87.21
2023-03-05T03:01:40.024Z,87.88
2023-03-05T03:04:07.919Z,88.61
2023-03-05T03:06:35.653Z,88.87
2023-03-05T03:09:03.440Z,89.54
2023-03-05T03:11:32.595Z,90.05
2023-03-05T03:14:00.761Z,90.59
2023-03-05T03:16:28.608Z,91.26
2023-03-05T03:18:56.383Z,91.63
2023-03-05T03:21:26.897Z,91.96
2023-03-05T03:23:54.765Z,92.20
2023-03-05T03:26:22.621Z,93.02
2023-03-05T03:28:51.779Z,93.06
2023-03-05T03:31:19.676Z,93.55
2023-03-05T03:33:47.502Z,93.15
2023-03-05T03:36:15.301Z,93.65
2023-03-05T03:38:43.101Z,94.16
2023-03-05T03:41:10.980Z,93.96
2023-03-05T03:43:38.885Z,95.20
2023-03-05T03:46:08.489Z,95.23
2023-03-05T03:48:36.987Z,95.70
2023-03-05T03:51:07.087Z,95.65
2023-03-05T03:53:35.219Z,95.66
2023-03-05T03:56:04.657Z,96.56
2023-03-05T03:58:32.384Z,96.14
2023-03-05T04:01:00.183Z,96.54
2023-03-05T04:03:29.419Z,96.89
2023-03-05T04:05:57.188Z,97.12
2023-03-05T04:08:24.944Z,97.22
2023-03-05T04:10:52.789Z,97.83
2023-03-05T04:13:20.582Z,98.22
2023-03-05T04:15:48.343Z,98.52
2023-03-05T04:18:16.171Z,98.38
2023-03-05T04:20:45.247Z,98.74
2023-03-05T04:23:13.002Z,98.72
2023-03-05T04:25:40.787Z,98.58
2023-03-05T04:28:08.729Z,99.00
2023-03-05T04:30:37.117Z,99.60
2023-03-05T04:33:05.056Z,99.95
2023-03-05T04:35:33.120Z,100.00
2023-03-05T04:38:02.206Z,100.00
2023-03-05T04:40:30.051Z,100.00
2023-03-05T04:42:57.823Z,100.00
2023-03-05T04:45:25.699Z,100.00
2023-03-05T04:47:53.619Z,100.00
2023-03-05T04:50:21.486Z,100.00
2023-03-05T04:52:49.276Z,100.00
2023-03-05T04:55:19.293Z,100.00
2023-03-05T04:57:47.134Z,100.00
2023-03-05T05:00:17.907Z,100.00
2023-03-05T05:02:46.613Z,100.00
2023-03-05T05:05:17.289Z,100.00
2023-03-05T05:07:45.182Z,100.00
2023-03-05T05:10:13.862Z,100.00
2023-03-05T05:12:43.365Z,100.00
2023-03-05T05:15:13.221Z,100.00
2023-03-05T05:17:41.053Z,100.00
2023-03-05T05:20:11.526Z,100.00
2023-03-05T05:22:39.515Z,100.00
2023-03-05T05:25:07.825Z,100.00
2023-03-05T05:27:35.831Z,100.00
2023-03-05T05:30:05.702Z,100.00
2023-03-05T05:32:33.581Z,100.00
2023-03-05T05:35:01.539Z,100.00
2023-03-05T05:37:30.532Z,100.00
2023-03-05T05:39:58.434Z,100.00
2023-03-05T05:42:26.970Z,100.00
2023-03-05T05:44:55.508Z,100.00
2023-03-05T05:47:24.644Z,100.00
2023-03-05T05:49:52.746Z,100.00
2023-03-05T05:52:20.524Z,100.00
2023-03-05T05:54:48.604Z,100.00
2023-03-05T05:57:16.647Z,100.00
2023-03-05T05:59:44.369Z,100.00
2023-03-05T06:02:12.301Z,100.00
2023-03-05T06:04:41.381Z,100.00
2023-03-05T06:07:09.220Z,100.00
2023-03-05T06:09:37.515Z,100.00
2023-03-05T06:12:06.291Z,100.00
2023-03-05T06:14:34.021Z,100.00
2023-03-05T06:17:01.905Z,100.00
2023-03-05T06:19:29.728Z,100.00
2023-03-05T06:21:58.818Z,100.00
2023-03-05T06:24:26.606Z,100.00
2023-03-05T06:26:54.347Z,100.00
2023-03-05T06:29:22.094Z,100.00
2023-03-05T06:31:49.903Z,100.00
2023-03-05T06:34:17.711Z,100.00
2023-03-05T06:36:45.479Z,100.00
2023-03-05T06:39:14.803Z,100.00
2023-03-05T06:41:42.616Z,100.00
2023-03-05T06:44:11.217Z,100.00
2023-03-05T06:46:40.190Z,100.00
2023-03-05T06:49:09.515Z,100.00
2023-03-05T06:51:39.528Z,99.81
2023-03-05T06:54:09.981Z,99.61
2023-03-05T06:56:41.980Z,98.32
2023-03-05T06:59:10.116Z,97.55
2023-03-05T07:01:37.904Z,96.88
2023-03-05T07:04:06.848Z,96.95
2023-03-05T07:06:36.929Z,97.48
2023-03-05T07:09:06.522Z,97.01
2023-03-05T07:11:35.087Z,96.63
2023-03-05T07:14:04.757Z,96.65
2023-03-05T07:16:34.742Z,96.41
2023-03-05T07:19:04.882Z,96.80
2023-03-05T07:21:35.984Z,96.68
2023-03-05T07:24:05.744Z,96.79
2023-03-05T07:26:34.405Z,96.78
2023-03-05T07:29:03.811Z,97.02
2023-03-05T07:31:32.202Z,96.59
2023-03-05T07:34:01.699Z,96.73
2023-03-05T07:36:30.177Z,97.54
2023-03-05T07:38:57.983Z,99.59
2023-03-05T07:41:25.851Z,100.00
2023-03-05T07:43:55.364Z,100.00
2023-03-05T07:46:26.958Z,100.00
2023-03-05T07:48:55.451Z,100.00
2023-03-05T07:51:24.929Z,100.00
2023-03-05T07:53:54.231Z,100.00
2023-03-05T07:56:24.094Z,100.00
2023-03-05T07:58:51.905Z,100.00
2023-03-05T08:01:20.135Z,100.00
2023-03-05T08:03:49.354Z,100.00
2023-03-05T08:06:17.229Z,100.00
2023-03-05T08:08:44.999Z,100.00
2023-03-05T08:11:14.586Z,100.00
2023-03-05T08:13:43.419Z,100.00
2023-03-05T08:16:13.831Z,100.00
2023-03-05T08:18:42.173Z,100.00
2023-03-05T08:21:19.027Z,100.00
2023-03-05T08:23:47.641Z,100.00
2023-03-05T08:26:16.126Z,100.00
2023-03-05T08:28:43.912Z,99.83
2023-03-05T08:31:12.750Z,99.53
2023-03-05T08:33:41.295Z,99.45
2023-03-05T08:36:09.996Z,99.16
2023-03-05T08:38:39.161Z,98.32
2023-03-05T08:41:07.212Z,97.60
2023-03-05T08:43:35.040Z,97.42
2023-03-05T08:46:04.064Z,97.19
2023-03-05T08:48:32.195Z,96.59
2023-03-05T08:51:05.303Z,96.07
2023-03-05T08:53:33.093Z,95.66
2023-03-05T08:56:02.310Z,95.42
2023-03-05T08:58:30.042Z,95.02
2023-03-05T09:00:57.872Z,94.79
2023-03-05T09:03:26.046Z,92.93
2023-03-05T09:05:53.839Z,92.31
2023-03-05T09:08:21.975Z,92.25
2023-03-05T09:10:49.711Z,91.23
2023-03-05T09:13:18.779Z,90.95
2023-03-05T09:15:46.567Z,90.55
2023-03-05T09:18:14.295Z,89.96
2023-03-05T09:20:42.027Z,90.01
2023-03-05T09:23:09.860Z,89.73
2023-03-05T09:25:37.571Z,90.84
2023-03-05T09:28:05.735Z,90.69
2023-03-05T09:30:35.536Z,91.25
2023-03-05T09:33:03.443Z,89.38
2023-03-05T09:35:31.514Z,88.70
2023-03-05T09:37:59.328Z,88.58
2023-03-05T09:40:33.008Z,88.17
2023-03-05T09:43:06.638Z,87.26
2023-03-05T09:45:41.193Z,86.77
2023-03-05T09:48:17.865Z,87.01
2023-03-05T09:50:50.547Z,85.71
2023-03-05T09:53:36.145Z,86.02
2023-03-05T09:56:10.463Z,84.80
2023-03-05T09:58:41.426Z,83.93
2023-03-05T10:01:12.833Z,83.07
2023-03-05T10:03:52.736Z,82.39
2023-03-05T10:06:24.951Z,82.52
2023-03-05T10:08:57.690Z,81.94
2023-03-05T10:11:44.006Z,80.23
2023-03-05T10:14:19.702Z,79.53
2023-03-05T10:17:06.043Z,79.86
2023-03-05T10:19:58.595Z,79.60
2023-03-05T10:22:29.795Z,78.52
2023-03-05T10:25:10.925Z,78.92
2023-03-05T10:27:49.097Z,78.03
2023-03-05T10:30:40.353Z,77.15
2023-03-05T10:33:16.512Z,76.37
2023-03-05T10:36:02.779Z,74.94
2023-03-05T10:38:54.799Z,75.48
2023-03-05T10:41:31.104Z,73.53
2023-03-05T10:44:04.787Z,73.46
2023-03-05T10:46:36.348Z,73.62
2023-03-05T10:49:16.554Z,72.91
2023-03-05T10:51:52.847Z,72.75
2023-03-05T10:54:26.402Z,72.56
2023-03-05T10:57:04.676Z,71.91
2023-03-05T10:59:33.349Z,71.56
2023-03-05T11:02:08.647Z,70.61
2023-03-05T11:04:39.830Z,70.06
2023-03-05T11:07:29.091Z,69.51
2023-03-05T11:10:06.442Z,69.72
2023-03-05T11:12:36.096Z,69.81
2023-03-05T11:15:07.788Z,69.11
2023-03-05T11:17:38.338Z,69.32
2023-03-05T11:20:35.191Z,68.69
2023-03-05T11:23:10.463Z,67.38
2023-03-05T11:25:56.947Z,68.51
2023-03-05T11:28:32.872Z,66.84
2023-03-05T11:31:08.720Z,66.95
2023-03-05T11:33:38.342Z,67.42
2023-03-05T11:36:25.448Z,66.97
2023-03-05T11:38:56.406Z,66.66
2023-03-05T11:41:32.325Z,66.99
2023-03-05T11:44:04.449Z,66.28
2023-03-05T11:46:39.642Z,66.86
2023-03-05T11:49:09.959Z,66.73
2023-03-05T11:51:44.699Z,66.58
2023-03-05T11:54:18.721Z,65.63
2023-03-05T11:56:47.415Z,66.45
2023-03-05T11:59:19.546Z,65.25
2023-03-05T12:01:49.668Z,64.87
2023-03-05T12:04:18.363Z,65.04
2023-03-05T12:06:50.624Z,65.29
2023-03-05T12:09:27.597Z,63.87
2023-03-05T12:12:03.678Z,64.34
2023-03-05T12:14:39.579Z,64.95
2023-03-05T12:17:14.847Z,64.71
2023-03-05T12:19:52.898Z,63.21
2023-03-05T12:22:24.050Z,62.20
2023-03-05T12:24:52.712Z,61.69
2023-03-05T12:27:35.214Z,60.87
2023-03-05T12:30:04.073Z,60.73
2023-03-05T12:32:59.784Z,62.80
2023-03-05T12:35:30.740Z,63.46
2023-03-05T12:38:17.143Z,62.69
2023-03-05T12:40:51.516Z,62.86
2023-03-05T12:43:31.968Z,61.62
2023-03-05T12:46:26.084Z,62.30
2023-03-05T12:48:53.879Z,60.95
2023-03-05T12:51:36.454Z,60.83
2023-03-05T12:54:35.088Z,60.40
2023-03-05T12:57:05.429Z,59.99
2023-03-05T12:59:41.551Z,61.54
2023-03-05T13:02:22.827Z,60.14
2023-03-05T13:04:53.214Z,61.40
2023-03-05T13:07:21.002Z,60.02
2023-03-05T13:09:58.096Z,60.38
2023-03-05T13:12:27.300Z,59.56
2023-03-05T13:15:04.493Z,59.76
2023-03-05T13:17:38.033Z,59.98
2023-03-05T13:20:31.407Z,60.70
2023-03-05T13:23:24.681Z,59.38
2023-03-05T13:26:03.042Z,59.90
2023-03-05T13:28:32.409Z,59.27
2023-03-05T13:31:02.673Z,59.29
2023-03-05T13:33:31.849Z,59.63
2023-03-05T13:35:59.954Z,59.71
2023-03-05T13:38:34.391Z,59.58
2023-03-05T13:41:09.760Z,60.30
2023-03-05T13:43:44.426Z,59.78
2023-03-05T13:46:12.473Z,59.54
2023-03-05T13:48:40.726Z,59.72
2023-03-05T13:51:09.789Z,60.00
2023-03-05T13:53:37.766Z,59.40
2023-03-05T13:56:09.550Z,59.80
2023-03-05T13:58:50.769Z,59.13
2023-03-05T14:01:26.686Z,59.32
2023-03-05T14:03:57.276Z,59.10
2023-03-05T14:06:28.660Z,60.01
2023-03-05T14:09:03.717Z,60.04
2023-03-05T14:11:32.926Z,60.66
2023-03-05T14:14:06.949Z,60.22
2023-03-05T14:16:34.912Z,60.54
2023-03-05T14:19:04.846Z,60.79
2023-03-05T14:21:47.551Z,60.49
2023-03-05T14:24:22.801Z,60.60
2023-03-05T14:26:56.519Z,61.36
2023-03-05T14:29:26.809Z,60.86
2023-03-05T14:31:58.394Z,60.17
2023-03-05T14:34:30.370Z,60.35
2023-03-05T14:37:01.010Z,60.04
2023-03-05T14:39:30.809Z,60.00
2023-03-05T14:42:16.020Z,59.76
2023-03-05T14:44:44.364Z,60.22
2023-03-05T14:47:12.099Z,60.79
2023-03-05T14:49:39.995Z,60.95
2023-03-05T14:52:07.942Z,61.54
2023-03-05T14:54:38.388Z,61.12
2023-03-05T14:57:07.150Z,60.80
2023-03-05T14:59:36.261Z,61.24
2023-03-05T15:02:04.012Z,62.04
2023-03-05T15:04:31.802Z,61.57
2023-03-05T15:06:59.530Z,61.45
2023-03-05T15:09:27.734Z,62.08
2023-03-05T15:11:55.497Z,62.77
2023-03-05T15:14:23.217Z,62.70
2023-03-05T15:16:52.382Z,62.99
2023-03-05T15:19:20.304Z,63.19
2023-03-05T15:21:48.139Z,62.99
2023-03-05T15:24:15.925Z,62.79
2023-03-05T15:26:43.683Z,62.59
2023-03-05T15:29:11.418Z,62.97
2023-03-05T15:31:40.521Z,62.97
2023-03-05T15:34:09.706Z,63.69
2023-03-05T15:36:37.463Z,63.51
2023-03-05T15:39:05.225Z,63.96
2023-03-05T15:41:32.978Z,63.78
2023-03-05T15:44:00.721Z,64.70
2023-03-05T15:46:28.619Z,64.38
2023-03-05T15:48:56.481Z,64.35
2023-03-05T15:51:25.588Z,64.18
2023-03-05T15:53:54.387Z,64.93
2023-03-05T15:56:22.138Z,64.05
2023-03-05T15:58:50.596Z,63.98
2023-03-05T16:01:19.351Z,63.71
2023-03-05T16:03:47.228Z,64.11
2023-03-05T16:06:16.011Z,64.12
2023-03-05T16:08:45.365Z,64.58
2023-03-05T16:11:14.069Z,65.06
2023-03-05T16:13:43.089Z,64.95
2023-03-05T16:16:11.495Z,64.96
2023-03-05T16:18:43.933Z,65.23
2023-03-05T16:21:12.248Z,65.08
2023-03-05T16:23:40.016Z,65.40
2023-03-05T16:26:10.998Z,65.76
2023-03-05T16:28:39.152Z,66.19
2023-03-05T16:31:07.292Z,65.83
2023-03-05T16:33:35.509Z,66.18
2023-03-05T16:36:21.307Z,66.25
2023-03-05T16:38:49.891Z,66.62
2023-03-05T16:41:22.551Z,66.46
2023-03-05T16:43:53.377Z,66.25
2023-03-05T16:46:21.812Z,66.46
2023-03-05T16:48:49.814Z,66.76
2023-03-05T16:51:19.311Z,67.27
2023-03-05T16:53:47.768Z,67.72
2023-03-05T16:56:15.700Z,67.93
2023-03-05T16:58:44.808Z,68.03
2023-03-05T17:01:14.377Z,67.76
2023-03-05T17:03:43.520Z,70.50
2023-03-05T17:06:13.524Z,68.39
2023-03-05T17:08:41.778Z,68.08
2023-03-05T17:11:10.853Z,68.36
2023-03-05T17:13:39.657Z,68.51
2023-03-05T17:16:10.493Z,68.49
2023-03-05T17:18:38.353Z,68.57
2023-03-05T17:21:08.180Z,68.72
2023-03-05T17:23:36.211Z,69.16
2023-03-05T17:26:05.135Z,68.98
2023-03-05T17:28:33.252Z,69.06
2023-03-05T17:31:01.497Z,69.16
2023-03-05T17:33:31.181Z,69.33
2023-03-05T17:35:59.123Z,69.50
2023-03-05T17:38:27.234Z,70.04
2023-03-05T17:40:55.183Z,70.16
2023-03-05T17:43:23.390Z,70.13
2023-03-05T17:45:51.212Z,70.12
2023-03-05T17:48:18.970Z,70.48
2023-03-05T17:50:48.173Z,70.36
2023-03-05T17:53:15.979Z,70.15
2023-03-05T17:55:43.802Z,70.45
2023-03-05T17:58:11.728Z,70.24
2023-03-05T18:00:39.593Z,70.08
2023-03-05T18:03:07.382Z,69.91
2023-03-05T18:05:35.227Z,70.05
2023-03-05T18:08:05.163Z,69.81
2023-03-05T18:10:33.478Z,69.37
2023-03-05T18:13:01.564Z,69.31
2023-03-05T18:15:30.069Z,69.24
2023-03-05T18:17:58.599Z,69.13
2023-03-05T18:20:30.195Z,68.76
2023-03-05T18:22:58.627Z,68.74
2023-03-05T18:25:31.138Z,69.04
2023-03-05T18:27:59.633Z,69.44
2023-03-05T18:30:27.677Z,69.19
2023-03-05T18:32:56.403Z,69.22
2023-03-05T18:35:24.897Z,68.22
2023-03-05T18:37:52.886Z,68.16
2023-03-05T18:40:24.288Z,67.40
2023-03-05T18:42:53.636Z,67.09
2023-03-05T18:45:23.503Z,67.15
2023-03-05T18:47:54.112Z,66.99
2023-03-05T18:50:23.266Z,66.82
2023-03-05T18:52:51.092Z,66.63
2023-03-05T18:55:20.562Z,66.32
2023-03-05T18:57:49.220Z,66.00
2023-03-05T19:00:20.166Z,66.01
2023-03-05T19:02:48.383Z,66.09
2023-03-05T19:05:16.905Z,66.09
2023-03-05T19:07:44.889Z,66.72
2023-03-05T19:10:17.140Z,66.31
2023-03-05T19:13:35.837Z,66.60
2023-03-05T19:16:13.981Z,66.29
2023-03-05T19:18:57.245Z,66.27
2023-03-05T19:21:25.463Z,66.10
2023-03-05T19:23:53.340Z,66.53
2023-03-05T19:26:21.104Z,66.55
2023-03-05T19:28:48.833Z,66.85
2023-03-05T19:31:18.044Z,66.84
2023-03-05T19:33:45.866Z,66.95
2023-03-05T19:36:13.934Z,67.10
2023-03-05T19:38:42.957Z,66.77
2023-03-05T19:41:12.976Z,67.41
2023-03-05T19:43:41.217Z,67.58
2023-03-05T19:46:09.991Z,67.72
2023-03-05T19:48:41.097Z,67.72
2023-03-05T19:51:11.468Z,68.12
2023-03-05T19:53:39.413Z,68.45
2023-03-05T19:56:08.407Z,68.92
2023-03-05T19:58:36.981Z,68.78
2023-03-05T20:01:12.247Z,68.47
2023-03-05T20:03:41.447Z,68.45
2023-03-05T20:06:09.313Z,68.83
2023-03-05T20:08:37.180Z,68.93
2023-03-05T20:11:05.245Z,68.68
2023-03-05T20:13:33.225Z,69.49
2023-03-05T20:16:01.409Z,69.39
2023-03-05T20:18:29.314Z,69.62
2023-03-05T20:21:02.849Z,69.92
2023-03-05T20:23:30.871Z,70.09
2023-03-05T20:25:58.688Z,70.21
2023-03-05T20:28:26.876Z,70.43
2023-03-05T20:30:55.869Z,70.55
2023-03-05T20:33:23.814Z,70.25
2023-03-05T20:35:53.340Z,70.49
2023-03-05T20:38:25.173Z,71.02
2023-03-05T20:40:54.665Z,71.20
2023-03-05T20:43:23.537Z,71.20
2023-03-05T20:45:53.127Z,71.40
2023-03-05T20:48:20.988Z,71.30
2023-03-05T20:50:48.732Z,71.42
2023-03-05T20:53:17.089Z,71.39
2023-03-05T20:55:47.956Z,71.57
2023-03-05T20:58:15.751Z,71.42
2023-03-05T21:00:43.922Z,71.24
2023-03-05T21:03:11.882Z,71.04
2023-03-05T21:05:39.660Z,71.47
2023-03-05T21:08:07.467Z,71.35
2023-03-05T21:10:35.290Z,70.80
2023-03-05T21:13:04.411Z,71.01
2023-03-05T21:15:32.297Z,71.02
2023-03-05T21:18:00.118Z,70.25
2023-03-05T21:20:30.709Z,70.25
2023-03-05T21:22:59.429Z,70.12
2023-03-05T21:25:29.059Z,69.40
2023-03-05T21:27:58.553Z,69.05
2023-03-05T21:30:31.504Z,69.14
2023-03-05T21:33:00.132Z,69.21
2023-03-05T21:35:28.374Z,68.29
2023-03-05T21:37:56.254Z,68.47
2023-03-05T21:40:24.101Z,68.31
2023-03-05T21:42:52.785Z,67.92
2023-03-05T21:45:23.545Z,68.00
2023-03-05T21:47:53.168Z,67.73
2023-03-05T21:50:21.656Z,67.76
2023-03-05T21:52:50.391Z,67.30
2023-03-05T21:55:20.236Z,67.49
2023-03-05T21:57:47.973Z,67.32
2023-03-05T22:00:18.177Z,67.40
2023-03-05T22:02:46.613Z,67.40
2023-03-05T22:05:15.745Z,66.52
2023-03-05T22:07:44.244Z,65.27
2023-03-05T22:10:13.915Z,65.64
2023-03-05T22:13:17.674Z,65.64
2023-03-05T22:15:47.248Z,65.63
2023-03-05T22:18:16.364Z,65.07
2023-03-05T22:20:46.060Z,64.85
2023-03-05T22:23:14.268Z,64.84
2023-03-05T22:25:42.291Z,65.37
2023-03-05T22:28:11.144Z,64.96
2023-03-05T22:30:44.296Z,64.97
2023-03-05T22:33:12.579Z,64.68
2023-03-05T22:35:41.309Z,64.45
2023-03-05T22:38:11.138Z,64.41
2023-03-05T22:40:43.317Z,64.38
2023-03-05T22:43:11.675Z,64.51
2023-03-05T22:45:39.623Z,64.80
2023-03-05T22:48:09.793Z,64.49
2023-03-05T22:50:37.663Z,64.68
2023-03-05T22:53:05.508Z,64.94
2023-03-05T22:55:34.660Z,65.45
2023-03-05T22:58:02.456Z,65.46
2023-03-05T23:00:30.211Z,65.46
2023-03-05T23:02:58.015Z,65.70
2023-03-05T23:05:25.812Z,65.89
2023-03-05T23:07:53.550Z,65.72
2023-03-05T23:10:26.661Z,65.64
2023-03-05T23:12:58.202Z,65.78
2023-03-05T23:15:28.104Z,65.82
2023-03-05T23:17:55.996Z,65.75
2023-03-05T23:20:25.840Z,65.50
2023-03-05T23:22:56.012Z,65.56
2023-03-05T23:25:25.466Z,65.57
2023-03-05T23:27:53.578Z,65.45
2023-03-05T23:30:24.318Z,65.60
2023-03-05T23:32:53.665Z,65.86
2023-03-05T23:35:24.774Z,65.90
2023-03-05T23:37:53.052Z,65.76
2023-03-05T23:40:23.635Z,65.85
2023-03-05T23:42:51.749Z,65.76
2023-03-05T23:45:21.102Z,65.70
2023-03-05T23:47:51.608Z,66.23
2023-03-05T23:50:21.851Z,65.94
2023-03-05T23:52:50.796Z,66.10
2023-03-05T23:55:20.684Z,66.05
2023-03-05T23:57:48.703Z,66.46
